createdAt,value
2023-12-12T00:00:57.837Z,100838.31
2023-12-12T00:03:24.415Z,100838.47
2023-12-12T00:05:50.979Z,100838.47
2023-12-12T00:08:17.489Z,100840.06
2023-12-12T00:10:44.045Z,100837.50
2023-12-12T00:13:10.587Z,100841.69
2023-12-12T00:15:37.201Z,100845.25
2023-12-12T00:18:03.815Z,100851.56
2023-12-12T00:20:30.546Z,100843.97
2023-12-12T00:22:57.058Z,100839.09
2023-12-12T00:25:23.938Z,100840.38
2023-12-12T00:27:50.618Z,100838.09
2023-12-12T00:30:17.646Z,100842.63
2023-12-12T00:32:44.160Z,100840.53
2023-12-12T00:35:11.119Z,100849.09
2023-12-12T00:37:37.708Z,100849.25
2023-12-12T00:40:05.690Z,100851.84
2023-12-12T00:42:32.244Z,100848.28
2023-12-12T00:44:58.795Z,100853.44
2023-12-12T00:47:25.526Z,100850.06
2023-12-12T00:49:52.149Z,100852.78
2023-12-12T00:52:18.699Z,100855.53
2023-12-12T00:54:45.252Z,100857.47
2023-12-12T00:57:11.722Z,100862.78
2023-12-12T00:59:38.236Z,100851.16
2023-12-12T01:02:04.706Z,100860.84
2023-12-12T01:04:37.577Z,100855.97
2023-12-12T01:07:04.403Z,100859.03
2023-12-12T01:09:30.923Z,100849.00
2023-12-12T01:11:57.381Z,100840.94
2023-12-12T01:14:23.842Z,100844.13
2023-12-12T01:16:50.309Z,100843.78
2023-12-12T01:19:17.110Z,100843.44
2023-12-12T01:21:43.693Z,100835.53
2023-12-12T01:24:10.230Z,100836.94
2023-12-12T01:26:36.749Z,100843.53
2023-12-12T01:29:03.285Z,100841.06
2023-12-12T01:31:29.908Z,100837.31
2023-12-12T01:33:56.521Z,100836.31
2023-12-12T01:36:23.152Z,100840.31
2023-12-12T01:38:51.992Z,100836.59
2023-12-12T01:41:19.668Z,100837.94
2023-12-12T01:43:46.148Z,100839.38
2023-12-12T01:46:17.937Z,100835.66
2023-12-12T01:48:45.096Z,100831.75
2023-12-12T01:51:11.914Z,100832.19
2023-12-12T01:53:41.403Z,100826.84
2023-12-12T01:56:08.484Z,100828.06
2023-12-12T01:58:36.866Z,100824.19
2023-12-12T02:01:04.980Z,100829.78
2023-12-12T02:03:32.643Z,100823.47
2023-12-12T02:06:00.177Z,100821.50
2023-12-12T02:08:27.149Z,100830.59
2023-12-12T02:10:54.618Z,100821.06
2023-12-12T02:13:21.933Z,100825.19
2023-12-12T02:15:48.836Z,100818.03
2023-12-12T02:18:15.568Z,100822.16
2023-12-12T02:20:42.829Z,100807.94
2023-12-12T02:23:09.786Z,100808.38
2023-12-12T02:25:37.675Z,100811.41
2023-12-12T02:28:04.971Z,100815.50
2023-12-12T02:30:31.734Z,100818.66
2023-12-12T02:32:59.774Z,100819.91
2023-12-12T02:35:26.337Z,100816.00
2023-12-12T02:37:52.859Z,100818.19
2023-12-12T02:40:19.365Z,100831.63
2023-12-12T02:42:46.330Z,100827.75
2023-12-12T02:45:12.941Z,100827.38
2023-12-12T02:47:39.498Z,100830.22
2023-12-12T02:50:06.650Z,100828.22
2023-12-12T02:52:33.231Z,100823.34
2023-12-12T02:54:59.765Z,100821.19
2023-12-12T02:57:26.655Z,100830.16
2023-12-12T02:59:53.132Z,100828.81
2023-12-12T03:02:19.592Z,100829.09
2023-12-12T03:04:46.843Z,100822.75
2023-12-12T03:07:14.112Z,100819.13
2023-12-12T03:09:40.857Z,100830.38
2023-12-12T03:12:07.413Z,100821.31
2023-12-12T03:14:35.895Z,100819.81
2023-12-12T03:17:02.454Z,100814.16
2023-12-12T03:19:29.684Z,100808.47
2023-12-12T03:21:56.294Z,100808.88
2023-12-12T03:24:22.774Z,100811.88
2023-12-12T03:26:49.218Z,100808.13
2023-12-12T03:29:15.774Z,100815.81
2023-12-12T03:31:42.278Z,100808.38
2023-12-12T03:34:09.436Z,100802.72
2023-12-12T03:36:36.412Z,100802.44
2023-12-12T03:39:03.245Z,100797.59
2023-12-12T03:41:31.040Z,100802.88
2023-12-12T03:43:57.564Z,100796.91
2023-12-12T03:46:24.983Z,100796.50
2023-12-12T03:48:51.592Z,100793.56
2023-12-12T03:51:18.249Z,100790.59
2023-12-12T03:53:44.743Z,100788.28
2023-12-12T03:56:11.279Z,100785.72
2023-12-12T03:58:37.950Z,100791.00
2023-12-12T04:01:04.916Z,100788.69
2023-12-12T04:03:32.627Z,100792.06
2023-12-12T04:06:01.927Z,100789.22
2023-12-12T04:08:28.749Z,100798.28
2023-12-12T04:10:55.228Z,100790.31
2023-12-12T04:13:21.696Z,100792.47
2023-12-12T04:15:48.166Z,100786.25
2023-12-12T04:18:14.639Z,100787.72
2023-12-12T04:20:41.179Z,100785.97
2023-12-12T04:23:07.653Z,100780.16
2023-12-12T04:25:34.266Z,100768.91
2023-12-12T04:28:00.813Z,100768.38
2023-12-12T04:30:27.268Z,100767.16
2023-12-12T04:32:53.850Z,100776.34
2023-12-12T04:35:20.996Z,100768.50
2023-12-12T04:37:47.697Z,100769.03
2023-12-12T04:40:14.224Z,100768.75
2023-12-12T04:42:40.822Z,100769.00
2023-12-12T04:45:07.608Z,100763.56
2023-12-12T04:47:34.665Z,100767.50
2023-12-12T04:50:01.608Z,100769.50
2023-12-12T04:52:29.086Z,100769.38
2023-12-12T04:54:55.608Z,100772.34
2023-12-12T04:57:22.131Z,100762.06
2023-12-12T04:59:48.632Z,100758.84
2023-12-12T05:02:15.557Z,100754.91
2023-12-12T05:04:42.123Z,100757.75
2023-12-12T05:07:08.639Z,100749.91
2023-12-12T05:09:35.149Z,100751.41
2023-12-12T05:12:01.579Z,100738.41
2023-12-12T05:14:28.066Z,100736.13
2023-12-12T05:17:01.425Z,100732.72
2023-12-12T05:19:34.333Z,100735.59
2023-12-12T05:22:00.967Z,100745.88
2023-12-12T05:24:27.463Z,100732.19
2023-12-12T05:26:54.185Z,100720.47
2023-12-12T05:29:20.976Z,100725.75
2023-12-12T05:31:47.689Z,100724.78
2023-12-12T05:34:14.204Z,100732.63
2023-12-12T05:36:40.709Z,100725.59
2023-12-12T05:39:07.903Z,100730.75
2023-12-12T05:41:34.377Z,100721.13
2023-12-12T05:44:00.845Z,100708.13
2023-12-12T05:46:27.362Z,100712.31
2023-12-12T05:48:54.118Z,100717.31
2023-12-12T05:51:20.653Z,100714.59
2023-12-12T05:53:47.097Z,100710.56
2023-12-12T05:56:15.132Z,100708.56
2023-12-12T05:58:41.940Z,100722.34
2023-12-12T06:01:08.537Z,100718.19
2023-12-12T06:03:37.772Z,100716.25
2023-12-12T06:06:09.081Z,100706.66
2023-12-12T06:08:35.733Z,100715.84
2023-12-12T06:11:02.206Z,100716.22
2023-12-12T06:13:29.688Z,100712.44
2023-12-12T06:15:57.937Z,100715.81
2023-12-12T06:18:24.904Z,100720.53
2023-12-12T06:20:51.582Z,100709.81
2023-12-12T06:23:18.663Z,100718.84
2023-12-12T06:25:45.271Z,100713.28
2023-12-12T06:28:11.802Z,100705.00
2023-12-12T06:30:38.363Z,100711.31
2023-12-12T06:33:05.163Z,100703.69
2023-12-12T06:35:32.212Z,100700.41
2023-12-12T06:37:58.690Z,100696.59
2023-12-12T06:40:25.301Z,100686.59
2023-12-12T06:42:52.129Z,100693.19
2023-12-12T06:45:19.486Z,100686.66
2023-12-12T06:47:46.140Z,100691.03
2023-12-12T06:50:13.007Z,100682.31
2023-12-12T06:52:39.708Z,100675.94
2023-12-12T06:55:06.718Z,100678.22
2023-12-12T06:57:33.619Z,100679.03
2023-12-12T07:00:00.375Z,100669.25
2023-12-12T07:02:27.659Z,100675.88
2023-12-12T07:04:54.640Z,100662.41
2023-12-12T07:07:21.248Z,100656.16
2023-12-12T07:09:58.846Z,100658.44
2023-12-12T07:15:12.187Z,100660.13
2023-12-12T07:17:38.780Z,100651.28
2023-12-12T07:20:06.454Z,100658.56
2023-12-12T07:22:33.597Z,100655.03
2023-12-12T07:25:01.170Z,100659.06
2023-12-12T07:27:27.846Z,100654.59
2023-12-12T07:29:54.415Z,100644.78
2023-12-12T07:32:20.969Z,100646.78
2023-12-12T07:34:47.555Z,100642.91
2023-12-12T07:37:14.164Z,100641.66
2023-12-12T07:39:40.772Z,100644.75
2023-12-12T07:42:07.280Z,100653.78
2023-12-12T07:44:33.783Z,100650.88
2023-12-12T07:47:02.643Z,100643.84
2023-12-12T07:49:32.487Z,100638.72
2023-12-12T07:51:59.084Z,100637.44
2023-12-12T07:54:25.659Z,100626.38
2023-12-12T07:56:52.233Z,100630.28
2023-12-12T07:59:21.715Z,100627.22
2023-12-12T08:01:49.145Z,100625.16
2023-12-12T08:04:15.840Z,100624.84
2023-12-12T08:06:42.462Z,100615.66
2023-12-12T08:09:09.052Z,100602.31
2023-12-12T08:11:35.701Z,100599.28
2023-12-12T08:14:02.527Z,100602.97
2023-12-12T08:16:29.129Z,100593.97
2023-12-12T08:18:55.982Z,100598.16
2023-12-12T08:21:22.631Z,100599.34
2023-12-12T08:23:49.858Z,100591.44
2023-12-12T08:26:16.537Z,100596.13
2023-12-12T08:28:43.081Z,100587.25
2023-12-12T08:31:10.393Z,100590.34
2023-12-12T08:33:36.954Z,100576.31
2023-12-12T08:36:04.985Z,100580.34
2023-12-12T08:38:31.598Z,100575.84
2023-12-12T08:40:58.113Z,100571.31
2023-12-12T08:43:25.176Z,100565.03
2023-12-12T08:45:53.906Z,100555.38
2023-12-12T08:48:20.722Z,100565.22
2023-12-12T08:50:49.663Z,100567.63
2023-12-12T08:53:16.898Z,100557.00
2023-12-12T08:55:43.588Z,100556.66
2023-12-12T08:58:11.716Z,100559.72
2023-12-12T09:00:39.929Z,100563.78
2023-12-12T09:03:06.666Z,100550.88
2023-12-12T09:05:33.213Z,100548.94
2023-12-12T09:08:00.039Z,100545.19
2023-12-12T09:10:26.914Z,100548.13
2023-12-12T09:12:53.704Z,100530.53
2023-12-12T09:15:20.639Z,100533.41
2023-12-12T09:18:00.441Z,100536.31
2023-12-12T09:20:33.927Z,100526.78
2023-12-12T09:23:00.774Z,100531.13
2023-12-12T09:25:27.460Z,100522.53
2023-12-12T09:27:53.950Z,100519.47
2023-12-12T09:30:20.437Z,100524.16
2023-12-12T09:32:47.019Z,100518.00
2023-12-12T09:35:13.550Z,100515.41
2023-12-12T09:37:40.085Z,100512.03
2023-12-12T09:40:07.318Z,100511.69
2023-12-12T09:42:35.389Z,100511.38
2023-12-12T09:45:05.272Z,100506.50
2023-12-12T09:47:32.656Z,100506.34
2023-12-12T09:50:00.799Z,100489.69
2023-12-12T09:52:32.397Z,100486.94
2023-12-12T09:55:00.286Z,100485.78
2023-12-12T09:57:30.541Z,100479.66
2023-12-12T09:59:59.348Z,100468.16
2023-12-12T10:02:34.962Z,100469.00
2023-12-12T10:05:04.262Z,100456.88
2023-12-12T10:07:32.554Z,100445.75
2023-12-12T10:10:00.385Z,100441.72
2023-12-12T10:12:29.967Z,100441.53
2023-12-12T10:14:57.930Z,100425.88
2023-12-12T10:17:26.288Z,100427.16
2023-12-12T10:20:00.912Z,100414.69
2023-12-12T10:22:34.666Z,100420.13
2023-12-12T10:25:12.370Z,100419.97
2023-12-12T10:27:46.056Z,100416.25
2023-12-12T10:30:15.826Z,100415.72
2023-12-12T10:32:42.381Z,100411.03
2023-12-12T10:35:09.118Z,100404.50
2023-12-12T10:37:35.776Z,100398.03
2023-12-12T10:40:16.699Z,100398.31
2023-12-12T10:42:43.612Z,100397.81
2023-12-12T10:45:14.947Z,100392.13
2023-12-12T10:47:47.331Z,100385.94
2023-12-12T10:50:15.788Z,100385.78
2023-12-12T10:52:44.783Z,100376.88
2023-12-12T10:55:13.200Z,100373.13
2023-12-12T10:57:43.728Z,100372.59
2023-12-12T11:00:17.684Z,100370.28
2023-12-12T11:02:46.681Z,100363.78
2023-12-12T11:05:17.262Z,100355.69
2023-12-12T11:07:49.476Z,100351.56
2023-12-12T11:10:19.378Z,100354.41
2023-12-12T11:13:01.795Z,100350.16
2023-12-12T11:15:29.812Z,100346.69
2023-12-12T11:17:58.316Z,100336.59
2023-12-12T11:20:26.005Z,100342.66
2023-12-12T11:22:53.521Z,100335.97
2023-12-12T11:25:22.280Z,100324.75
2023-12-12T11:27:51.998Z,100320.25
2023-12-12T11:30:20.073Z,100317.38
2023-12-12T11:32:48.226Z,100310.88
2023-12-12T11:35:31.837Z,100309.50
2023-12-12T11:38:01.461Z,100298.53
2023-12-12T11:40:28.537Z,100291.56
2023-12-12T11:43:19.785Z,100285.75
2023-12-12T11:45:47.267Z,100276.81
2023-12-12T11:48:14.045Z,100274.50
2023-12-12T11:50:40.697Z,100264.97
2023-12-12T11:53:07.201Z,100256.28
2023-12-12T11:55:34.217Z,100256.53
2023-12-12T11:58:05.654Z,100249.59
2023-12-12T12:00:34.126Z,100239.31
2023-12-12T12:03:02.027Z,100236.59
2023-12-12T12:05:28.918Z,100237.44
2023-12-12T12:07:56.408Z,100229.09
2023-12-12T12:10:24.996Z,100231.91
2023-12-12T12:12:55.823Z,100226.16
2023-12-12T12:15:22.895Z,100227.38
2023-12-12T12:17:49.583Z,100214.22
2023-12-12T12:20:16.171Z,100205.66
2023-12-12T12:22:43.341Z,100217.63
2023-12-12T12:25:10.300Z,100212.44
2023-12-12T12:27:57.358Z,100206.69
2023-12-12T12:30:25.082Z,100198.53
2023-12-12T12:33:02.271Z,100183.00
2023-12-12T12:35:28.976Z,100183.81
2023-12-12T12:37:58.024Z,100181.63
2023-12-12T12:40:34.630Z,100179.91
2023-12-12T12:43:03.295Z,100175.31
2023-12-12T12:45:30.241Z,100172.75
2023-12-12T12:47:59.151Z,100164.78
2023-12-12T12:50:25.911Z,100157.59
2023-12-12T12:52:52.374Z,100136.25
2023-12-12T12:55:18.998Z,100126.69
2023-12-12T12:57:45.678Z,100136.44
2023-12-12T13:00:14.189Z,100133.84
2023-12-12T13:02:40.828Z,100132.47
2023-12-12T13:05:07.651Z,100128.03
2023-12-12T13:07:34.938Z,100126.63
2023-12-12T13:10:02.095Z,100120.44
2023-12-12T13:12:29.130Z,100118.22
2023-12-12T13:14:56.282Z,100122.00
2023-12-12T13:17:22.840Z,100125.00
2023-12-12T13:19:49.477Z,100122.81
2023-12-12T13:22:15.950Z,100112.81
2023-12-12T13:24:42.438Z,100123.56
2023-12-12T13:27:08.882Z,100115.19
2023-12-12T13:29:35.361Z,100103.22
2023-12-12T13:32:01.971Z,100106.78
2023-12-12T13:34:28.548Z,100100.63
2023-12-12T13:36:55.158Z,100100.44
2023-12-12T13:39:21.579Z,100077.69
2023-12-12T13:41:48.062Z,100067.91
2023-12-12T13:44:14.908Z,100056.34
2023-12-12T13:46:41.461Z,100053.94
2023-12-12T13:49:08.120Z,100067.31
2023-12-12T13:51:41.533Z,100073.47
2023-12-12T13:54:13.672Z,100088.03
2023-12-12T13:56:40.197Z,100091.22
2023-12-12T13:59:07.684Z,100088.00
2023-12-12T14:01:34.765Z,100087.22
2023-12-12T14:04:01.484Z,100079.00
2023-12-12T14:06:29.185Z,100081.19
2023-12-12T14:08:56.250Z,100078.00
2023-12-12T14:11:26.000Z,100078.97
2023-12-12T14:13:53.162Z,100070.59
2023-12-12T14:16:27.382Z,100071.59
2023-12-12T14:18:56.425Z,100064.00
2023-12-12T14:21:22.919Z,100060.81
2023-12-12T14:23:49.428Z,100054.03
2023-12-12T14:26:17.608Z,100044.47
2023-12-12T14:28:48.490Z,100045.47
2023-12-12T14:31:15.757Z,100030.91
2023-12-12T14:33:42.523Z,100033.50
2023-12-12T14:36:09.936Z,100036.88
2023-12-12T14:38:37.331Z,100030.09
2023-12-12T14:41:05.172Z,100024.91
2023-12-12T14:43:34.775Z,100023.13
2023-12-12T14:46:01.564Z,100013.75
2023-12-12T14:48:29.804Z,100008.56
2023-12-12T14:50:56.622Z,100005.97
2023-12-12T14:53:23.210Z,100008.56
2023-12-12T14:55:49.811Z,100004.38
2023-12-12T14:58:18.270Z,100002.78
2023-12-12T15:00:44.964Z,100000.19
2023-12-12T15:03:11.511Z,99990.00
2023-12-12T15:05:38.021Z,99992.81
2023-12-12T15:08:05.097Z,99987.63
2023-12-12T15:10:31.670Z,99983.41
2023-12-12T15:12:58.262Z,99980.81
2023-12-12T15:15:24.840Z,99989.38
2023-12-12T15:17:51.563Z,99979.22
2023-12-12T15:20:18.178Z,99976.63
2023-12-12T15:22:45.385Z,99969.84
2023-12-12T15:25:12.174Z,99979.22
2023-12-12T15:27:39.116Z,99974.03
2023-12-12T15:30:06.888Z,99973.25
2023-12-12T15:32:34.815Z,99964.69
2023-12-12T15:35:02.428Z,99956.72
2023-12-12T15:37:29.186Z,99961.50
2023-12-12T15:40:02.417Z,99956.31
2023-12-12T15:42:29.624Z,99947.72
2023-12-12T15:44:56.416Z,99945.13
2023-12-12T15:47:23.215Z,99944.16
2023-12-12T15:49:50.457Z,99947.53
2023-12-12T15:52:17.810Z,99943.16
2023-12-12T15:54:44.339Z,99941.16
2023-12-12T15:57:10.821Z,99932.41
2023-12-12T15:59:37.509Z,99928.81
2023-12-12T16:02:07.229Z,99925.63
2023-12-12T16:04:33.846Z,99923.03
2023-12-12T16:07:00.589Z,99914.25
2023-12-12T16:09:27.282Z,99921.03
2023-12-12T16:11:53.802Z,99921.03
2023-12-12T16:14:20.365Z,99914.03
2023-12-12T16:16:47.244Z,99914.84
2023-12-12T16:19:14.672Z,99904.50
2023-12-12T16:21:41.257Z,99902.88
2023-12-12T16:24:09.151Z,99895.91
2023-12-12T16:26:35.701Z,99896.72
2023-12-12T16:29:02.851Z,99890.72
2023-12-12T16:31:29.641Z,99885.75
2023-12-12T16:33:57.691Z,99883.94
2023-12-12T16:36:24.217Z,99889.91
2023-12-12T16:38:58.009Z,99883.16
2023-12-12T16:41:24.875Z,99892.50
2023-12-12T16:43:52.020Z,99900.88
2023-12-12T16:46:20.176Z,99898.28
2023-12-12T16:48:46.943Z,99892.13
2023-12-12T16:51:13.738Z,99879.34
2023-12-12T16:53:41.048Z,99883.75
2023-12-12T16:56:12.020Z,99881.34
2023-12-12T16:58:38.747Z,99893.72
2023-12-12T17:01:06.192Z,99883.75
2023-12-12T17:03:34.135Z,99882.34
2023-12-12T17:06:04.854Z,99874.16
2023-12-12T17:08:31.911Z,99870.16
2023-12-12T17:10:58.693Z,99889.31
2023-12-12T17:13:25.974Z,99876.56
2023-12-12T17:16:06.467Z,99882.13
2023-12-12T17:18:33.304Z,99870.13
2023-12-12T17:21:15.330Z,99865.72
2023-12-12T17:23:49.097Z,99865.69
2023-12-12T17:26:17.397Z,99864.47
2023-12-12T17:28:43.918Z,99860.50
2023-12-12T17:31:10.541Z,99857.28
2023-12-12T17:33:37.027Z,99859.66
2023-12-12T17:36:03.724Z,99859.47
2023-12-12T17:38:30.197Z,99857.72
2023-12-12T17:40:56.719Z,99858.50
2023-12-12T17:43:23.181Z,99850.72
2023-12-12T17:45:50.096Z,99852.94
2023-12-12T17:48:16.672Z,99855.13
2023-12-12T17:50:43.224Z,99846.78
2023-12-12T17:53:15.061Z,99843.00
2023-12-12T17:55:42.490Z,99838.41
2023-12-12T17:58:09.482Z,99820.28
2023-12-12T18:00:36.213Z,99831.84
2023-12-12T18:03:02.697Z,99836.00
2023-12-12T18:05:33.203Z,99838.97
2023-12-12T18:08:00.001Z,99840.56
2023-12-12T18:10:26.462Z,99831.81
2023-12-12T18:12:53.308Z,99822.03
2023-12-12T18:15:19.796Z,99819.19
2023-12-12T18:17:46.864Z,99816.41
2023-12-12T18:20:13.450Z,99821.59
2023-12-12T18:22:40.057Z,99825.19
2023-12-12T18:25:06.896Z,99809.06
2023-12-12T18:27:33.644Z,99810.63
2023-12-12T18:30:01.314Z,99815.56
2023-12-12T18:32:28.054Z,99810.97
2023-12-12T18:34:58.250Z,99808.94
2023-12-12T18:37:26.619Z,99803.72
2023-12-12T18:39:53.833Z,99794.16
2023-12-12T18:42:20.234Z,99798.91
2023-12-12T18:44:46.690Z,99795.72
2023-12-12T18:47:13.269Z,99803.31
2023-12-12T18:49:40.557Z,99793.56
2023-12-12T18:52:07.323Z,99788.97
2023-12-12T18:54:33.847Z,99781.22
2023-12-12T18:57:00.356Z,99778.63
2023-12-12T18:59:26.884Z,99780.63
2023-12-12T19:01:54.105Z,99766.88
2023-12-12T19:04:20.929Z,99762.88
2023-12-12T19:06:47.748Z,99758.69
2023-12-12T19:09:14.299Z,99758.28
2023-12-12T19:11:40.898Z,99756.28
2023-12-12T19:14:07.355Z,99754.25
2023-12-12T19:16:36.331Z,99751.44
2023-12-12T19:19:03.348Z,99754.41
2023-12-12T19:21:29.895Z,99744.25
2023-12-12T19:23:56.355Z,99750.44
2023-12-12T19:26:22.777Z,99750.44
2023-12-12T19:28:49.225Z,99753.22
2023-12-12T19:31:15.747Z,99753.41
2023-12-12T19:33:42.255Z,99750.81
2023-12-12T19:36:09.275Z,99742.28
2023-12-12T19:38:35.706Z,99726.97
2023-12-12T19:41:02.208Z,99729.00
2023-12-12T19:43:28.694Z,99724.41
2023-12-12T19:45:55.390Z,99715.69
2023-12-12T19:48:21.960Z,99720.44
2023-12-12T19:50:48.970Z,99733.19
2023-12-12T19:53:15.461Z,99737.78
2023-12-12T19:55:41.952Z,99723.47
2023-12-12T19:58:08.473Z,99719.50
2023-12-12T20:00:35.448Z,99737.22
2023-12-12T20:03:01.964Z,99733.66
2023-12-12T20:05:28.491Z,99728.47
2023-12-12T20:08:01.650Z,99741.22
2023-12-12T20:10:33.703Z,99738.25
2023-12-12T20:13:00.678Z,99737.44
2023-12-12T20:15:27.146Z,99750.56
2023-12-12T20:17:53.630Z,99755.75
2023-12-12T20:20:20.195Z,99767.50
2023-12-12T20:22:49.379Z,99758.75
2023-12-12T20:25:17.834Z,99755.34
2023-12-12T20:27:47.648Z,99759.56
2023-12-12T20:30:15.604Z,99754.38
2023-12-12T20:32:43.103Z,99739.81
2023-12-12T20:35:09.935Z,99739.63
2023-12-12T20:37:36.844Z,99744.81
2023-12-12T20:40:05.716Z,99728.31
2023-12-12T20:42:32.146Z,99738.47
2023-12-12T20:45:01.455Z,99727.91
2023-12-12T20:47:27.929Z,99727.91
2023-12-12T20:49:54.910Z,99720.16
2023-12-12T20:52:21.504Z,99725.53
2023-12-12T20:54:50.758Z,99723.72
2023-12-12T20:57:22.835Z,99727.31
2023-12-12T20:59:49.454Z,99727.50
2023-12-12T21:02:16.634Z,99727.50
2023-12-12T21:04:43.651Z,99731.88
2023-12-12T21:07:10.305Z,99730.28
2023-12-12T21:09:36.866Z,99735.66
2023-12-12T21:12:03.896Z,99730.69
2023-12-12T21:14:30.340Z,99731.47
2023-12-12T21:16:56.799Z,99735.03
2023-12-12T21:19:23.588Z,99736.84
2023-12-12T21:21:50.123Z,99742.00
2023-12-12T21:24:16.556Z,99736.25
2023-12-12T21:26:43.591Z,99726.88
2023-12-12T21:29:10.581Z,99732.03
2023-12-12T21:31:37.078Z,99735.66
2023-12-12T21:34:04.478Z,99737.59
2023-12-12T21:36:31.625Z,99729.25
2023-12-12T21:38:59.496Z,99736.22
2023-12-12T21:41:31.716Z,99727.25
2023-12-12T21:43:58.911Z,99734.41
2023-12-12T21:46:25.470Z,99733.00
2023-12-12T21:48:52.059Z,99734.97
2023-12-12T21:51:18.842Z,99729.41
2023-12-12T21:53:45.245Z,99728.81
2023-12-12T21:56:22.557Z,99730.56
2023-12-12T21:58:56.082Z,99744.69
2023-12-12T22:01:24.581Z,99739.72
2023-12-12T22:03:51.137Z,99736.50
2023-12-12T22:06:17.669Z,99737.50
2023-12-12T22:08:44.159Z,99740.88
2023-12-12T22:11:21.814Z,99741.09
2023-12-12T22:13:49.439Z,99741.28
2023-12-12T22:16:29.753Z,99736.28
2023-12-12T22:19:02.373Z,99735.50
2023-12-12T22:21:37.166Z,99734.91
2023-12-12T22:24:03.847Z,99736.84
2023-12-12T22:26:30.335Z,99739.84
2023-12-12T22:28:57.471Z,99735.06
2023-12-12T22:31:24.226Z,99730.06
2023-12-12T22:33:50.800Z,99728.66
2023-12-12T22:36:18.432Z,99728.06
2023-12-12T22:38:46.452Z,99725.66
2023-12-12T22:41:13.552Z,99730.84
2023-12-12T22:43:41.498Z,99738.59
2023-12-12T22:46:10.644Z,99736.97
2023-12-12T22:48:38.048Z,99734.41
2023-12-12T22:51:05.810Z,99731.22
2023-12-12T22:53:32.276Z,99725.84
2023-12-12T22:55:58.731Z,99733.59
2023-12-12T22:58:25.797Z,99726.03
2023-12-12T23:00:53.371Z,99720.88
2023-12-12T23:03:20.357Z,99729.41
2023-12-12T23:05:47.814Z,99726.22
2023-12-12T23:08:14.388Z,99724.81
2023-12-12T23:10:41.808Z,99723.44
2023-12-12T23:13:08.773Z,99725.19
2023-12-12T23:15:35.384Z,99722.00
2023-12-12T23:18:01.839Z,99721.41
2023-12-12T23:20:28.788Z,99715.63
2023-12-12T23:22:55.248Z,99724.56
2023-12-12T23:25:21.764Z,99718.19
2023-12-12T23:27:48.269Z,99719.34
2023-12-12T23:30:15.230Z,99716.56
2023-12-12T23:32:43.322Z,99713.19
2023-12-12T23:35:10.001Z,99710.81
2023-12-12T23:37:36.901Z,99710.00
2023-12-12T23:40:06.071Z,99705.00
2023-12-12T23:42:32.706Z,99696.66
2023-12-12T23:45:04.874Z,99695.88
2023-12-12T23:47:32.766Z,99691.69
2023-12-12T23:49:59.984Z,99692.69
2023-12-12T23:52:27.301Z,99684.09
2023-12-12T23:54:54.082Z,99684.09
2023-12-12T23:57:20.748Z,99683.50
2023-12-12T23:59:47.884Z,99680.31
